Time;durP1;ratioP1;P1;durP2;ratioP2;P2;SDS_P1;SDS_P2;PMS_P1;PMS_P2;Temp;Humidity;BMP_temperature;BMP_pressure;BME280_temperature;BME280_humidity;BME280_pressure;Samples;Min_cycle;Max_cycle;Signal;HPM_P1;HPM_P2
2020/12/09 00:00:43;;;;;;;65.00;24.08;;;;;;;0.06;94.73;95596.63;4936607;28;20061;-68
2020/12/09 00:03:08;;;;;;;53.42;22.02;;;;;;;0.16;95.00;95598.94;4937912;28;20166;-67
2020/12/09 00:05:33;;;;;;;52.55;20.75;;;;;;;0.25;94.04;95606.94;4942813;28;20141;-66
2020/12/09 00:07:59;;;;;;;55.70;20.00;;;;;;;0.31;93.82;95605.66;4943037;28;20039;-67
2020/12/09 00:10:24;;;;;;;49.88;20.55;;;;;;;0.36;94.02;95605.47;4937553;28;20453;-67
2020/12/09 00:12:50;;;;;;;49.75;20.45;;;;;;;0.43;93.10;95613.00;4940292;28;20600;-67
2020/12/09 00:15:17;;;;;;;51.22;21.33;;;;;;;0.49;92.87;95614.41;4936085;28;20054;-66
2020/12/09 00:17:43;;;;;;;51.90;19.23;;;;;;;0.48;92.79;95620.13;4941285;28;20544;-65
2020/12/09 00:20:08;;;;;;;45.80;18.23;;;;;;;0.42;92.31;95613.34;4932253;28;20043;-65
2020/12/09 00:22:36;;;;;;;44.95;19.27;;;;;;;0.37;92.42;95609.72;4940992;28;20059;-66
2020/12/09 00:25:04;;;;;;;52.03;20.25;;;;;;;0.40;92.21;95605.59;4940905;28;20086;-68
2020/12/09 00:27:31;;;;;;;56.50;20.58;;;;;;;0.41;92.43;95601.78;4925058;29;20047;-66
2020/12/09 00:29:57;;;;;;;54.85;20.77;;;;;;;0.48;92.58;95607.44;4942587;28;20054;-68
2020/12/09 00:32:22;;;;;;;49.20;19.77;;;;;;;0.44;92.75;95600.34;4937955;28;20043;-67
2020/12/09 00:34:47;;;;;;;56.17;21.80;;;;;;;0.52;92.73;95588.69;4942038;28;20074;-68
2020/12/09 00:37:13;;;;;;;51.05;19.77;;;;;;;0.64;92.26;95590.69;4938165;28;20656;-68
2020/12/09 00:39:38;;;;;;;52.60;20.63;;;;;;;0.64;92.02;95599.53;4941624;28;20039;-66
2020/12/09 00:42:04;;;;;;;49.10;19.45;;;;;;;0.63;91.64;95606.06;4937077;28;20035;-65
2020/12/09 00:44:29;;;;;;;47.72;18.58;;;;;;;0.60;92.09;95609.41;4939982;28;20183;-65
2020/12/09 00:46:54;;;;;;;56.08;20.25;;;;;;;0.64;91.53;95612.25;4943021;28;20050;-65
2020/12/09 00:49:20;;;;;;;55.83;21.10;;;;;;;0.63;92.31;95607.97;4933383;28;20044;-64
2020/12/09 00:51:45;;;;;;;55.97;21.23;;;;;;;0.61;91.86;95610.97;4941391;28;20126;-68
2020/12/09 00:54:11;;;;;;;57.25;21.10;;;;;;;0.50;92.04;95607.09;4936631;28;20097;-67
2020/12/09 00:56:39;;;;;;;53.97;21.38;;;;;;;0.43;92.80;95604.16;4940811;28;20114;-68
2020/12/09 00:59:05;;;;;;;57.95;22.63;;;;;;;0.37;92.33;95614.31;4933144;28;20047;-65
2020/12/09 01:01:30;;;;;;;57.45;22.17;;;;;;;0.30;92.45;95619.44;4942429;28;20046;-65
2020/12/09 01:03:57;;;;;;;56.25;21.98;;;;;;;0.34;93.20;95615.78;4945719;28;20088;-65
2020/12/09 01:06:23;;;;;;;53.30;21.15;;;;;;;0.40;93.17;95618.25;4941007;28;20048;-66
2020/12/09 01:08:48;;;;;;;66.25;23.48;;;;;;;0.46;93.20;95609.66;4945640;28;20046;-67
2020/12/09 01:11:14;;;;;;;66.85;24.65;;;;;;;0.38;92.80;95626.69;4943356;28;20498;-66
2020/12/09 01:13:44;;;;;;;53.30;20.70;;;;;;;-0.13;93.75;95642.78;4951349;28;20049;-66
2020/12/09 01:16:14;;;;;;;63.83;23.23;;;;;;;-0.45;96.13;95655.72;4942172;28;20035;-67
2020/12/09 01:18:39;;;;;;;72.05;25.10;;;;;;;-0.45;96.73;95671.06;4948125;28;20501;-67
2020/12/09 01:21:04;;;;;;;73.07;24.90;;;;;;;-0.42;97.00;95663.16;4943426;28;20051;-66
2020/12/09 01:23:30;;;;;;;82.35;27.27;;;;;;;-0.34;96.42;95687.66;4946883;28;20805;-67
2020/12/09 01:25:55;;;;;;;73.55;26.98;;;;;;;-0.34;96.39;95679.59;4941649;28;20059;-68
2020/12/09 01:28:20;;;;;;;79.07;26.85;;;;;;;-0.42;96.61;95690.03;4941495;28;20229;-68
2020/12/09 01:30:46;;;;;;;82.78;27.38;;;;;;;-0.38;96.75;95684.81;4938472;28;20069;-66
2020/12/09 01:33:11;;;;;;;76.88;25.08;;;;;;;-0.28;96.62;95705.22;4948230;28;20047;-67
2020/12/09 01:35:37;;;;;;;83.88;26.30;;;;;;;-0.35;96.89;95710.31;4955561;28;20061;-65
2020/12/09 01:38:02;;;;;;;84.43;27.05;;;;;;;-0.37;96.62;95702.56;4944326;28;20489;-65
2020/12/09 01:40:28;;;;;;;76.57;26.02;;;;;;;-0.35;96.57;95705.72;4942931;28;20066;-68
2020/12/09 01:42:53;;;;;;;84.03;26.98;;;;;;;-0.31;96.99;95703.16;4944885;28;20043;-67
2020/12/09 01:45:19;;;;;;;86.93;26.65;;;;;;;-0.27;96.90;95701.41;4936974;28;20070;-65
2020/12/09 01:47:45;;;;;;;90.15;27.10;;;;;;;-0.23;96.47;95694.28;4942699;28;20043;-64
2020/12/09 01:50:13;;;;;;;84.05;26.20;;;;;;;-0.28;96.67;95694.47;4950326;28;20051;-64
2020/12/09 01:52:39;;;;;;;79.40;24.48;;;;;;;-0.32;96.38;95705.06;4967746;28;20031;-65
2020/12/09 01:55:05;;;;;;;79.05;25.38;;;;;;;-0.30;96.25;95710.91;4923363;28;20095;-64
2020/12/09 01:57:30;;;;;;;75.95;25.52;;;;;;;-0.28;96.67;95708.69;4942896;28;20039;-66
2020/12/09 01:59:56;;;;;;;73.15;25.05;;;;;;;-0.13;96.47;95711.97;4934651;28;20513;-67
2020/12/09 02:02:21;;;;;;;72.40;25.20;;;;;;;0.04;96.66;95703.03;4957285;28;20555;-64
2020/12/09 02:04:47;;;;;;;73.88;24.65;;;;;;;0.09;96.33;95703.69;4959732;28;20082;-68
2020/12/09 02:07:13;;;;;;;64.70;22.20;;;;;;;0.17;95.88;95705.53;4947410;28;20126;-66
2020/12/09 02:09:39;;;;;;;62.28;23.63;;;;;;;0.28;95.45;95716.72;4943827;28;20405;-66
2020/12/09 02:12:04;;;;;;;60.45;22.90;;;;;;;0.32;95.50;95714.94;4938893;28;20039;-64
2020/12/09 02:14:30;;;;;;;60.53;22.52;;;;;;;0.27;94.62;95717.03;4946434;28;20047;-67
2020/12/09 02:16:58;;;;;;;55.30;21.02;;;;;;;0.14;94.44;95721.53;4946679;28;20085;-66
2020/12/09 02:19:25;;;;;;;61.88;23.05;;;;;;;0.17;94.29;95716.28;4939322;28;20992;-66
2020/12/09 02:21:51;;;;;;;60.92;22.98;;;;;;;0.28;94.27;95715.94;4942950;28;20500;-68
2020/12/09 02:24:17;;;;;;;56.08;21.38;;;;;;;0.35;93.94;95716.22;4940148;28;20085;-66
2020/12/09 02:26:45;;;;;;;52.92;20.25;;;;;;;0.40;94.08;95721.44;4943761;28;20501;-68
2020/12/09 02:29:11;;;;;;;52.25;20.25;;;;;;;0.47;93.69;95716.31;4939794;28;20067;-68
2020/12/09 02:31:38;;;;;;;55.22;21.38;;;;;;;0.48;93.13;95719.81;4964458;28;20047;-68
2020/12/09 02:34:04;;;;;;;52.17;19.67;;;;;;;0.48;93.22;95717.88;4959390;28;20047;-63
2020/12/09 02:36:29;;;;;;;52.88;20.83;;;;;;;0.52;92.95;95713.44;4949615;28;20382;-68
2020/12/09 02:38:57;;;;;;;51.60;20.77;;;;;;;0.54;92.66;95713.91;4943397;28;20039;-65
2020/12/09 02:41:22;;;;;;;47.45;19.50;;;;;;;0.54;92.78;95700.44;4937610;28;21009;-64
2020/12/09 02:43:47;;;;;;;51.33;20.10;;;;;;;0.49;92.95;95702.53;4944235;28;20050;-66
2020/12/09 02:46:13;;;;;;;55.80;22.80;;;;;;;0.54;93.12;95705.00;4936675;28;20504;-68
2020/12/09 02:48:38;;;;;;;51.75;21.05;;;;;;;0.56;93.20;95700.13;4943857;28;20039;-67
2020/12/09 02:51:04;;;;;;;51.13;19.75;;;;;;;0.54;93.15;95705.81;4940895;28;20142;-65
2020/12/09 02:53:29;;;;;;;52.80;23.05;;;;;;;0.48;92.57;95707.13;4943072;28;20040;-67
2020/12/09 02:55:55;;;;;;;55.15;22.83;;;;;;;0.53;93.01;95700.75;4939652;28;20135;-67
2020/12/09 02:58:20;;;;;;;57.33;22.42;;;;;;;0.60;93.12;95697.56;4939106;28;20496;-67
2020/12/09 03:00:45;;;;;;;61.58;24.92;;;;;;;0.67;92.92;95704.00;4952482;28;20090;-66
2020/12/09 03:03:11;;;;;;;53.65;22.95;;;;;;;0.64;92.86;95701.94;4956673;28;20081;-66
2020/12/09 03:05:36;;;;;;;57.88;23.20;;;;;;;0.70;91.95;95708.75;4966253;28;20369;-66
2020/12/09 03:08:02;;;;;;;51.17;21.48;;;;;;;0.72;92.62;95714.59;4963773;28;20047;-65
2020/12/09 03:10:28;;;;;;;54.58;21.88;;;;;;;0.71;92.20;95709.53;4961534;28;20057;-67
2020/12/09 03:12:54;;;;;;;55.17;20.30;;;;;;;0.73;91.88;95721.56;4965690;28;20066;-67
2020/12/09 03:15:19;;;;;;;60.08;22.35;;;;;;;0.72;91.69;95721.88;4967854;28;20049;-65
2020/12/09 03:17:45;;;;;;;53.38;21.10;;;;;;;0.70;92.02;95716.03;4967000;28;20101;-67
2020/12/09 03:20:10;;;;;;;56.28;22.45;;;;;;;0.70;92.25;95718.72;4947658;28;20069;-67
2020/12/09 03:22:36;;;;;;;59.22;22.20;;;;;;;0.72;92.17;95717.28;4943482;28;20046;-67
2020/12/09 03:25:01;;;;;;;56.00;21.60;;;;;;;0.73;92.18;95718.84;4941225;28;20149;-65
2020/12/09 03:27:27;;;;;;;56.35;22.30;;;;;;;0.74;91.93;95716.97;4939101;28;20047;-68
2020/12/09 03:29:53;;;;;;;58.50;22.85;;;;;;;0.70;92.43;95718.72;4942940;28;20047;-65
2020/12/09 03:32:18;;;;;;;61.60;23.17;;;;;;;0.69;92.51;95719.84;4937475;28;20046;-67
2020/12/09 03:34:44;;;;;;;62.30;22.73;;;;;;;0.68;92.65;95723.66;4941954;28;20046;-68
2020/12/09 03:37:09;;;;;;;59.88;24.15;;;;;;;0.70;92.33;95729.50;4938301;28;20039;-67
2020/12/09 03:39:36;;;;;;;60.88;23.35;;;;;;;0.70;92.38;95724.09;4943032;28;20051;-67
2020/12/09 03:42:01;;;;;;;60.00;23.40;;;;;;;0.71;92.63;95721.09;4943311;28;20450;-65
2020/12/09 03:44:27;;;;;;;52.83;19.92;;;;;;;0.74;91.88;95728.53;4932959;28;20138;-66
2020/12/09 03:46:56;;;;;;;63.78;22.33;;;;;;;0.67;92.32;95714.00;4943120;28;20101;-67
2020/12/09 03:49:23;;;;;;;61.35;21.95;;;;;;;0.68;92.13;95721.72;4941492;28;20418;-67
2020/12/09 03:51:49;;;;;;;57.75;21.52;;;;;;;0.76;91.97;95730.91;4946701;28;20058;-67
2020/12/09 03:54:15;;;;;;;55.58;20.88;;;;;;;0.80;92.26;95731.03;4944188;28;20043;-66
2020/12/09 03:56:40;;;;;;;59.17;22.73;;;;;;;0.79;92.52;95745.63;4963020;28;20049;-66
2020/12/09 03:59:06;;;;;;;63.50;23.23;;;;;;;0.76;92.04;95747.06;4955366;28;20385;-64
2020/12/09 04:01:31;;;;;;;59.92;22.42;;;;;;;0.74;91.76;95747.41;4962485;28;20209;-67
2020/12/09 04:03:58;;;;;;;59.13;22.58;;;;;;;0.71;92.58;95758.03;4962487;28;20500;-67
2020/12/09 04:06:23;;;;;;;63.22;23.27;;;;;;;0.69;92.13;95752.97;4956732;28;20053;-66
2020/12/09 04:08:49;;;;;;;60.28;24.25;;;;;;;0.68;92.11;95756.00;4962281;28;20046;-65
2020/12/09 04:11:15;;;;;;;62.33;22.42;;;;;;;0.74;92.38;95752.00;4953286;28;20067;-67
2020/12/09 04:13:40;;;;;;;55.13;21.92;;;;;;;0.78;92.48;95762.94;4961764;28;20484;-67
2020/12/09 04:16:05;;;;;;;54.47;22.02;;;;;;;0.76;92.18;95753.25;4955969;28;20050;-64
2020/12/09 04:18:31;;;;;;;60.40;23.30;;;;;;;0.80;92.24;95758.00;4960914;28;20117;-67
2020/12/09 04:20:56;;;;;;;57.70;21.52;;;;;;;0.82;92.41;95755.75;4943374;28;20047;-66
2020/12/09 04:23:22;;;;;;;53.58;20.98;;;;;;;0.79;91.75;95754.50;4938170;28;20134;-68
2020/12/09 04:25:47;;;;;;;57.33;22.75;;;;;;;0.76;92.20;95747.84;4953375;28;20070;-67
2020/12/09 04:28:13;;;;;;;54.17;22.10;;;;;;;0.82;92.13;95751.16;4952720;28;20063;-65
2020/12/09 04:30:38;;;;;;;59.67;22.17;;;;;;;0.84;92.13;95748.13;4953329;28;20075;-67
2020/12/09 04:33:04;;;;;;;62.25;22.60;;;;;;;0.84;92.30;95753.53;4940095;28;20405;-61
2020/12/09 04:35:29;;;;;;;59.45;22.20;;;;;;;0.84;91.62;95740.03;4946381;28;20050;-67
2020/12/09 04:37:55;;;;;;;58.78;21.88;;;;;;;0.91;92.01;95743.78;4947332;28;20042;-66
2020/12/09 04:40:24;;;;;;;57.70;22.17;;;;;;;0.96;91.68;95742.81;4941810;28;20405;-69
2020/12/09 04:42:58;;;;;;;56.95;21.77;;;;;;;0.94;91.87;95743.16;4946461;28;20047;-66
2020/12/09 04:45:24;;;;;;;56.00;23.13;;;;;;;0.89;91.87;95748.72;4943802;28;20047;-69
2020/12/09 04:48:03;;;;;;;56.65;21.48;;;;;;;0.86;91.35;95759.38;4958230;28;20101;-67
2020/12/09 04:50:34;;;;;;;57.30;23.27;;;;;;;0.86;92.05;95752.06;4969822;28;20058;-68
2020/12/09 04:53:11;;;;;;;58.90;22.88;;;;;;;0.85;91.57;95747.81;4968944;28;20054;-65
2020/12/09 04:55:50;;;;;;;55.40;22.50;;;;;;;0.83;92.19;95743.84;4967830;28;20043;-67
2020/12/09 04:58:29;;;;;;;58.10;21.98;;;;;;;0.84;92.20;95748.13;4959720;28;20134;-67
2020/12/09 05:01:04;;;;;;;60.83;23.33;;;;;;;0.78;91.75;95762.94;4966835;28;20043;-68
2020/12/09 05:03:48;;;;;;;58.95;23.52;;;;;;;0.76;91.87;95760.56;4965283;28;20050;-67
2020/12/09 05:06:16;;;;;;;60.88;22.38;;;;;;;0.86;91.85;95760.16;4959938;28;20051;-68
2020/12/09 05:08:49;;;;;;;64.00;22.30;;;;;;;0.94;91.52;95762.03;4966149;28;20373;-68
2020/12/09 05:11:14;;;;;;;57.97;22.77;;;;;;;0.94;91.88;95767.41;4958568;28;20624;-68
2020/12/09 05:13:42;;;;;;;60.25;23.15;;;;;;;0.88;91.97;95759.84;4955391;28;20126;-68
2020/12/09 05:16:12;;;;;;;58.08;23.38;;;;;;;0.80;91.95;95766.09;4941201;28;20054;-67
2020/12/09 05:18:42;;;;;;;65.22;22.90;;;;;;;0.83;92.22;95770.81;4945006;28;20055;-67
2020/12/09 05:21:19;;;;;;;59.67;22.13;;;;;;;0.76;91.84;95774.03;4940667;28;20256;-67
2020/12/09 05:24:01;;;;;;;55.10;21.02;;;;;;;0.82;92.21;95778.09;4944839;28;20039;-67
2020/12/09 05:26:26;;;;;;;59.22;21.58;;;;;;;0.81;92.62;95781.94;4940607;28;20043;-67
2020/12/09 05:29:03;;;;;;;58.17;22.35;;;;;;;0.78;92.45;95784.50;4945504;28;20043;-67
2020/12/09 05:31:28;;;;;;;55.97;20.25;;;;;;;0.76;92.66;95777.50;4941302;28;20047;-69
2020/12/09 05:33:54;;;;;;;55.95;22.23;;;;;;;0.79;91.81;95777.97;4945679;28;20042;-64
2020/12/09 05:36:19;;;;;;;58.42;22.17;;;;;;;0.75;92.14;95770.53;4945184;28;20182;-68
2020/12/09 05:38:44;;;;;;;52.10;21.80;;;;;;;0.71;92.02;95772.31;4946565;28;20043;-67
2020/12/09 05:41:12;;;;;;;57.00;21.65;;;;;;;0.79;92.22;95769.88;4937096;28;20509;-67
2020/12/09 05:43:45;;;;;;;56.38;21.90;;;;;;;0.77;92.31;95770.19;4948722;28;20043;-68
2020/12/09 05:46:10;;;;;;;57.53;22.00;;;;;;;0.70;92.46;95772.63;4937009;28;20464;-67
2020/12/09 05:48:36;;;;;;;60.53;23.00;;;;;;;0.73;92.57;95778.16;4943818;28;20043;-66
2020/12/09 05:51:02;;;;;;;54.17;21.05;;;;;;;0.74;92.26;95779.75;4944898;28;20163;-66
2020/12/09 05:53:34;;;;;;;50.50;21.27;;;;;;;0.73;92.05;95777.38;4942022;28;20385;-68
2020/12/09 05:56:14;;;;;;;49.42;20.67;;;;;;;0.73;92.49;95778.16;4945418;28;20054;-68
2020/12/09 05:58:41;;;;;;;55.22;19.92;;;;;;;0.79;92.16;95783.34;4945401;28;20051;-68
2020/12/09 06:01:23;;;;;;;50.45;20.35;;;;;;;0.77;92.23;95783.69;4937526;28;20461;-64
2020/12/09 06:03:53;;;;;;;50.83;21.42;;;;;;;0.75;92.38;95792.09;4944222;28;20047;-68
2020/12/09 06:06:29;;;;;;;54.03;20.55;;;;;;;0.76;91.68;95803.69;4938065;28;20101;-67
2020/12/09 06:08:59;;;;;;;48.95;19.52;;;;;;;0.69;92.18;95801.50;4944431;28;20032;-68
2020/12/09 06:11:26;;;;;;;54.30;21.48;;;;;;;0.72;92.13;95808.94;4939680;28;20098;-67
2020/12/09 06:13:52;;;;;;;54.88;20.45;;;;;;;0.73;92.52;95810.50;4943702;28;20102;-67
2020/12/09 06:16:18;;;;;;;48.83;19.92;;;;;;;0.76;92.13;95803.69;4938851;28;20062;-67
2020/12/09 06:18:46;;;;;;;59.60;22.13;;;;;;;0.81;92.23;95816.97;4945684;28;20075;-69
2020/12/09 06:21:12;;;;;;;46.38;20.00;;;;;;;0.81;92.22;95821.56;4964756;28;20031;-70
2020/12/09 06:23:38;;;;;;;53.33;21.15;;;;;;;0.82;92.45;95828.53;4957581;28;20122;-67
2020/12/09 06:26:04;;;;;;;47.03;18.95;;;;;;;0.80;92.00;95831.56;4947980;28;20046;-68
2020/12/09 06:28:32;;;;;;;50.97;19.85;;;;;;;0.82;91.88;95825.84;4945731;28;20089;-68
2020/12/09 06:31:09;;;;;;;45.05;19.63;;;;;;;0.92;91.80;95836.28;4944991;28;20043;-65
2020/12/09 06:33:36;;;;;;;56.67;21.63;;;;;;;0.93;91.91;95837.84;4944360;28;20484;-67
2020/12/09 06:36:15;;;;;;;54.53;20.08;;;;;;;1.05;92.51;95837.94;4942720;28;20412;-69
2020/12/09 06:39:01;;;;;;;50.92;20.42;;;;;;;1.07;92.74;95838.41;4943935;28;20047;-66
2020/12/09 06:41:26;;;;;;;56.15;21.55;;;;;;;1.05;92.65;95843.31;4944285;28;20043;-67
2020/12/09 06:44:13;;;;;;;51.42;20.58;;;;;;;0.99;92.07;95836.56;4944749;28;20059;-67
2020/12/09 06:46:44;;;;;;;50.35;19.73;;;;;;;0.98;92.25;95837.66;4943210;28;20370;-67
2020/12/09 06:49:33;;;;;;;57.55;20.95;;;;;;;0.98;92.44;95847.66;4952521;28;20058;-69
2020/12/09 06:52:00;;;;;;;51.08;20.65;;;;;;;0.96;92.52;95850.69;4961804;28;20519;-69
2020/12/09 06:54:39;;;;;;;61.45;23.23;;;;;;;0.88;93.09;95859.59;4944271;28;20198;-65
2020/12/09 06:57:22;;;;;;;62.67;24.00;;;;;;;0.70;92.99;95853.47;4937589;28;20075;-69
2020/12/09 06:59:49;;;;;;;53.72;21.02;;;;;;;0.72;93.22;95862.03;4941438;28;20042;-66
2020/12/09 07:02:29;;;;;;;53.75;22.13;;;;;;;0.73;92.78;95850.16;4934159;28;20071;-66
2020/12/09 07:04:54;;;;;;;;;;;;;;;0.78;93.13;95857.28;4945217;28;20063;-66
2020/12/09 07:07:30;;;;;;;46.15;20.23;;;;;;;0.80;93.09;95853.13;4940260;28;20380;-65
2020/12/09 07:09:56;;;;;;;53.13;20.50;;;;;;;0.83;93.26;95860.56;4943698;28;20444;-67
2020/12/09 07:12:23;;;;;;;51.20;20.63;;;;;;;0.92;92.93;95853.22;4937571;28;20543;-67
2020/12/09 07:14:49;;;;;;;51.28;21.35;;;;;;;0.97;92.96;95862.25;4945956;28;20579;-66
2020/12/09 07:17:16;;;;;;;46.97;19.00;;;;;;;1.02;92.90;95856.66;4937380;28;20062;-66
2020/12/09 07:19:41;;;;;;;55.78;21.17;;;;;;;1.04;92.10;95857.91;4939916;28;20078;-66
2020/12/09 07:22:06;;;;;;;55.70;21.63;;;;;;;1.03;93.31;95853.66;4938342;28;20489;-66
2020/12/09 07:24:32;;;;;;;48.42;19.05;;;;;;;1.03;92.44;95850.97;4940699;28;20051;-66
2020/12/09 07:26:57;;;;;;;51.08;21.35;;;;;;;1.09;92.54;95863.13;4942593;28;20035;-69
2020/12/09 07:29:22;;;;;;;56.13;21.65;;;;;;;1.06;92.44;95862.97;4942654;28;20070;-67
2020/12/09 07:31:48;;;;;;;50.22;20.48;;;;;;;1.00;92.02;95865.09;4941803;28;20047;-67
2020/12/09 07:34:13;;;;;;;52.90;21.38;;;;;;;0.98;92.04;95871.94;4938607;28;20082;-68
2020/12/09 07:36:50;;;;;;;52.83;20.95;;;;;;;0.99;92.37;95868.91;4943822;28;20390;-67
2020/12/09 07:39:30;;;;;;;51.65;20.40;;;;;;;1.06;92.22;95863.78;4936901;28;20078;-66
2020/12/09 07:42:00;;;;;;;50.15;21.02;;;;;;;1.15;91.96;95874.50;4942472;28;20568;-66
2020/12/09 07:44:27;;;;;;;53.78;21.95;;;;;;;1.25;91.82;95876.06;4934019;28;20051;-65
2020/12/09 07:46:53;;;;;;;48.38;20.00;;;;;;;1.31;91.10;95874.75;4941773;28;20493;-65
2020/12/09 07:49:19;;;;;;;48.35;19.88;;;;;;;1.29;91.32;95880.47;4935171;28;20043;-68
2020/12/09 07:51:44;;;;;;;50.40;19.48;;;;;;;1.33;91.60;95865.22;4946295;28;20134;-66
2020/12/09 07:54:10;;;;;;;47.22;20.63;;;;;;;1.36;91.25;95868.38;4947309;28;20057;-66
2020/12/09 07:56:36;;;;;;;47.95;20.40;;;;;;;1.37;91.57;95869.94;4955689;28;20414;-68
2020/12/09 07:59:02;;;;;;;45.67;18.08;;;;;;;1.42;90.92;95872.47;4939161;28;20074;-69
2020/12/09 08:01:28;;;;;;;44.75;18.38;;;;;;;1.48;91.34;95881.97;4941612;28;20053;-68
2020/12/09 08:03:53;;;;;;;43.03;17.67;;;;;;;1.45;90.88;95879.91;4948425;28;20110;-67
2020/12/09 08:06:22;;;;;;;49.80;18.35;;;;;;;1.44;90.90;95881.81;4940065;28;20058;-68
2020/12/09 08:08:49;;;;;;;49.72;20.70;;;;;;;1.45;90.69;95872.59;4941680;28;20040;-67
2020/12/09 08:11:15;;;;;;;49.55;20.42;;;;;;;1.45;91.41;95869.91;4934982;28;20047;-68
2020/12/09 08:13:40;;;;;;;45.08;18.60;;;;;;;1.50;91.32;95864.31;4943640;28;20046;-66
2020/12/09 08:16:11;;;;;;;43.97;18.67;;;;;;;1.51;90.67;95867.78;4938842;28;20475;-66
2020/12/09 08:18:42;;;;;;;44.67;18.92;;;;;;;1.53;90.40;95858.25;4943373;28;20524;-67
2020/12/09 08:21:09;;;;;;;46.63;19.25;;;;;;;1.51;91.22;95865.09;4937860;28;20392;-68
2020/12/09 08:23:42;;;;;;;46.78;20.40;;;;;;;1.57;91.24;95877.28;4942460;28;20063;-67
2020/12/09 08:26:09;;;;;;;45.97;19.48;;;;;;;1.54;90.97;95875.25;4934609;28;20046;-68
2020/12/09 08:28:36;;;;;;;45.33;19.35;;;;;;;1.67;90.31;95870.69;4943116;28;20097;-68
2020/12/09 08:31:13;;;;;;;49.38;19.05;;;;;;;1.78;90.32;95871.88;4946106;28;20385;-70
2020/12/09 08:33:38;;;;;;;46.15;19.10;;;;;;;1.78;89.86;95871.88;4948365;28;20043;-68
2020/12/09 08:36:09;;;;;;;45.75;18.98;;;;;;;1.72;89.75;95868.59;4937731;28;20531;-71
2020/12/09 08:38:43;;;;;;;46.22;20.08;;;;;;;1.75;90.02;95864.44;4942461;28;20154;-68
2020/12/09 08:41:11;;;;;;;48.67;20.80;;;;;;;1.75;89.37;95867.16;4927474;28;20043;-70
2020/12/09 08:43:41;;;;;;;46.97;20.05;;;;;;;1.75;89.95;95872.56;4941932;28;20062;-68
2020/12/09 08:46:09;;;;;;;48.55;20.42;;;;;;;1.84;89.91;95867.88;4938037;28;20074;-68
2020/12/09 08:48:36;;;;;;;44.58;19.92;;;;;;;1.93;89.99;95867.81;4942249;28;20082;-67
2020/12/09 08:51:02;;;;;;;48.13;19.75;;;;;;;1.89;89.60;95878.47;4942258;28;20044;-67
2020/12/09 08:53:28;;;;;;;52.65;21.17;;;;;;;2.03;89.11;95875.47;4936463;28;20039;-67
2020/12/09 08:55:53;;;;;;;50.33;22.08;;;;;;;1.98;89.21;95881.09;4938665;28;20445;-68
2020/12/09 08:58:19;;;;;;;49.17;20.50;;;;;;;1.93;89.16;95884.00;4933890;28;20611;-68
2020/12/09 09:00:45;;;;;;;45.65;19.92;;;;;;;1.95;88.85;95889.88;4939873;28;20070;-69
2020/12/09 09:03:16;;;;;;;50.80;20.75;;;;;;;2.06;89.35;95899.13;4933645;28;20145;-66
2020/12/09 09:05:42;;;;;;;43.45;20.02;;;;;;;2.02;89.29;95900.16;4943117;28;20498;-67
2020/12/09 09:08:09;;;;;;;47.67;21.25;;;;;;;2.01;88.84;95912.84;4935681;28;20142;-68
2020/12/09 09:10:35;;;;;;;49.00;20.25;;;;;;;2.04;88.79;95911.41;4952014;28;20046;-70
2020/12/09 09:13:01;;;;;;;47.72;20.13;;;;;;;1.94;89.38;95911.78;4955473;28;20040;-68
2020/12/09 09:15:26;;;;;;;44.38;19.35;;;;;;;1.75;90.27;95910.34;4947762;28;20067;-66
2020/12/09 09:17:52;;;;;;;49.88;20.92;;;;;;;1.82;89.81;95915.19;4941435;28;20047;-68
2020/12/09 09:20:17;;;;;;;45.55;19.45;;;;;;;1.70;90.14;95927.53;4940613;28;20051;-68
2020/12/09 09:22:43;;;;;;;50.88;22.10;;;;;;;1.57;91.22;95931.28;4945570;28;20043;-67
2020/12/09 09:25:09;;;;;;;46.00;21.05;;;;;;;1.66;90.94;95933.91;4939797;28;20125;-67
2020/12/09 09:27:34;;;;;;;46.97;20.00;;;;;;;1.66;90.46;95934.69;4943217;28;20054;-67
2020/12/09 09:30:00;;;;;;;45.65;19.13;;;;;;;1.60;90.87;95919.81;4944957;28;20066;-67
2020/12/09 09:32:25;;;;;;;55.08;20.35;;;;;;;1.55;91.50;95917.31;4939035;28;20047;-67
2020/12/09 09:34:52;;;;;;;51.28;20.08;;;;;;;1.47;92.20;95910.84;4945185;28;20074;-68
2020/12/09 09:37:17;;;;;;;51.20;19.88;;;;;;;1.57;91.92;95914.25;4939143;28;20043;-68
2020/12/09 09:39:43;;;;;;;52.60;22.10;;;;;;;1.61;91.92;95916.00;4945585;28;20389;-68
2020/12/09 09:42:10;;;;;;;51.65;20.75;;;;;;;1.60;91.62;95919.00;4939693;28;20086;-68
2020/12/09 09:44:35;;;;;;;55.33;21.25;;;;;;;1.70;91.80;95924.81;4943434;28;20167;-68
2020/12/09 09:47:01;;;;;;;52.65;21.13;;;;;;;1.59;91.17;95918.22;4951358;28;20064;-67
2020/12/09 09:49:26;;;;;;;47.85;18.63;;;;;;;1.70;91.56;95921.34;4940839;28;20043;-64
2020/12/09 09:51:53;;;;;;;52.97;22.65;;;;;;;1.66;92.02;95912.31;4945590;28;20102;-64
2020/12/09 09:54:21;;;;;;;62.58;24.23;;;;;;;1.77;91.39;95904.63;4938903;28;20059;-67
2020/12/09 09:56:48;;;;;;;53.22;21.10;;;;;;;1.66;91.14;95888.81;4944302;28;20097;-67
2020/12/09 09:59:14;;;;;;;55.80;20.88;;;;;;;1.66;90.98;95891.50;4956363;28;20130;-68
2020/12/09 10:01:39;;;;;;;58.13;22.40;;;;;;;1.65;91.45;95900.72;4931760;28;20138;-68
2020/12/09 10:04:08;;;;;;;54.13;20.98;;;;;;;1.64;91.40;95901.84;4934103;28;20072;-68
2020/12/09 10:06:33;;;;;;;64.25;23.50;;;;;;;1.56;92.43;95891.88;4926200;28;20043;-67
2020/12/09 10:08:59;;;;;;;57.72;21.33;;;;;;;1.57;92.12;95898.88;4931809;28;21917;-66
2020/12/09 10:11:25;;;;;;;51.20;20.38;;;;;;;1.62;91.88;95901.38;4934586;28;20051;-68
2020/12/09 10:13:51;;;;;;;54.88;21.45;;;;;;;1.86;91.67;95898.03;4941772;28;20046;-67
2020/12/09 10:16:26;;;;;;;60.63;22.00;;;;;;;1.74;91.93;95903.34;4937403;28;20424;-68
2020/12/09 10:18:52;;;;;;;54.85;21.27;;;;;;;1.79;92.94;95905.09;4943410;28;20035;-68
2020/12/09 10:21:25;;;;;;;60.35;21.92;;;;;;;1.56;92.01;95896.50;4938673;28;20047;-66
2020/12/09 10:23:52;;;;;;;52.42;22.35;;;;;;;1.65;91.78;95895.31;4942276;28;20050;-66
2020/12/09 10:26:18;;;;;;;48.95;20.95;;;;;;;1.90;91.56;95898.16;4937800;28;20050;-68
2020/12/09 10:28:45;;;;;;;50.22;21.27;;;;;;;2.01;91.38;95893.94;4942944;28;20046;-67
2020/12/09 10:31:11;;;;;;;42.40;18.95;;;;;;;2.22;90.31;95895.84;4935975;28;20039;-67
2020/12/09 10:33:36;;;;;;;46.63;19.33;;;;;;;2.14;89.47;95894.78;4939337;28;20051;-67
2020/12/09 10:36:04;;;;;;;41.63;18.60;;;;;;;2.22;89.18;95898.53;4941064;28;20138;-67
2020/12/09 10:38:29;;;;;;;42.15;18.00;;;;;;;2.24;89.38;95890.88;4944366;28;20055;-68
2020/12/09 10:40:55;;;;;;;44.17;18.30;;;;;;;2.32;89.10;95894.63;4945555;28;20043;-67
2020/12/09 10:43:20;;;;;;;48.28;18.75;;;;;;;2.37;89.16;95887.09;4936741;28;20063;-67
2020/12/09 10:45:46;;;;;;;53.08;20.25;;;;;;;2.41;89.63;95890.72;4941612;28;20047;-67
2020/12/09 10:48:12;;;;;;;44.63;17.98;;;;;;;2.45;88.62;95891.63;4940492;28;20054;-67
2020/12/09 10:50:38;;;;;;;41.47;17.52;;;;;;;2.44;88.87;95894.66;4939661;28;20102;-68
2020/12/09 10:53:03;;;;;;;40.45;16.38;;;;;;;2.49;89.39;95902.56;4941262;28;20047;-69
2020/12/09 10:55:31;;;;;;;35.75;17.35;;;;;;;2.45;88.53;95902.44;4938501;28;20054;-68
2020/12/09 10:57:57;;;;;;;39.33;17.85;;;;;;;2.40;88.83;95896.47;4942711;28;20039;-69
2020/12/09 11:00:22;;;;;;;42.95;17.67;;;;;;;2.33;89.25;95907.03;4935728;28;20143;-69
2020/12/09 11:02:48;;;;;;;43.13;18.45;;;;;;;2.33;89.16;95904.31;4952944;28;20042;-68
2020/12/09 11:05:13;;;;;;;40.08;17.42;;;;;;;2.40;88.62;95905.34;4941696;28;20043;-67
2020/12/09 11:07:39;;;;;;;37.25;17.65;;;;;;;2.40;88.60;95904.56;4946847;28;20047;-68
2020/12/09 11:10:05;;;;;;;39.67;16.75;;;;;;;2.16;88.94;95902.53;4935437;28;20043;-70
2020/12/09 11:12:31;;;;;;;35.33;16.15;;;;;;;2.35;88.70;95899.38;4944298;28;20074;-67
2020/12/09 11:14:57;;;;;;;38.47;17.25;;;;;;;2.29;88.21;95904.97;4940004;28;20425;-67
2020/12/09 11:17:22;;;;;;;40.53;17.15;;;;;;;2.19;88.75;95907.28;4940046;28;20322;-67
2020/12/09 11:19:54;;;;;;;42.90;19.55;;;;;;;2.05;89.60;95902.97;4943356;28;20075;-70
2020/12/09 11:22:19;;;;;;;45.53;20.17;;;;;;;2.08;89.59;95907.69;4939613;28;20083;-67
2020/12/09 11:24:45;;;;;;;35.78;16.58;;;;;;;2.17;89.99;95917.66;4942079;28;20055;-69